Maldives Meteorological Service

METAR

Station
VRMM
METAR VRMM 240500Z 29004KT 9999 FEW018 30/25 Q1013 NOSIG=
VRMH
METAR VRMH 240500Z 33005KT 9000 FEW018 30/24 Q1013=
VRMK
METAR VRMK 240500Z 27003KT 9999 FEW018 32/26 Q1013=
VRMT
METAR VRMT 240500Z 25005KT 9999 FEW018TCU 30/25 Q1013=
VRMG
METAR VRMG 240500Z 25005KT 9999 FEW020 30/24 Q1013 NOSIG=
Last Updated : 2017-10-24 10:00:23

SPECI

Station
VRMM
VRMH
VRMK
VRMT
VRMG
Last Updated : 2017-10-24 10:00:23